sensor_id;sensor_type;location;lat;lon;timestamp;P1;durP1;ratioP1;P2;durP2;ratioP2
73571;SDS011;61854;48.510;-2.770;2022-10-30T00:00:55;20.55;;;2.90;;
73571;SDS011;61854;48.510;-2.770;2022-10-30T00:03:23;20.13;;;2.72;;
73571;SDS011;61854;48.510;-2.770;2022-10-30T00:05:49;24.30;;;2.60;;
73571;SDS011;61854;48.510;-2.770;2022-10-30T00:08:17;26.42;;;3.38;;
73571;SDS011;61854;48.510;-2.770;2022-10-30T00:10:47;14.20;;;2.72;;
73571;SDS011;61854;48.510;-2.770;2022-10-30T00:13:14;23.48;;;3.72;;
73571;SDS011;61854;48.510;-2.770;2022-10-30T00:15:45;18.42;;;2.65;;
73571;SDS011;61854;48.510;-2.770;2022-10-30T00:18:12;16.05;;;2.47;;
73571;SDS011;61854;48.510;-2.770;2022-10-30T00:20:38;19.75;;;2.40;;
73571;SDS011;61854;48.510;-2.770;2022-10-30T00:23:04;19.50;;;2.63;;
73571;SDS011;61854;48.510;-2.770;2022-10-30T00:25:30;24.73;;;2.90;;
73571;SDS011;61854;48.510;-2.770;2022-10-30T00:27:55;18.55;;;2.30;;
73571;SDS011;61854;48.510;-2.770;2022-10-30T00:30:21;16.95;;;2.60;;
73571;SDS011;61854;48.510;-2.770;2022-10-30T00:32:46;19.77;;;2.75;;
73571;SDS011;61854;48.510;-2.770;2022-10-30T00:35:12;17.65;;;2.47;;
73571;SDS011;61854;48.510;-2.770;2022-10-30T00:37:38;22.88;;;2.60;;
73571;SDS011;61854;48.510;-2.770;2022-10-30T00:40:04;21.10;;;2.45;;
73571;SDS011;61854;48.510;-2.770;2022-10-30T00:42:30;18.08;;;2.40;;
73571;SDS011;61854;48.510;-2.770;2022-10-30T00:44:59;20.27;;;2.40;;
73571;SDS011;61854;48.510;-2.770;2022-10-30T00:50:12;19.98;;;3.45;;
73571;SDS011;61854;48.510;-2.770;2022-10-30T00:52:51;19.33;;;2.63;;
73571;SDS011;61854;48.510;-2.770;2022-10-30T00:55:26;17.05;;;2.70;;
73571;SDS011;61854;48.510;-2.770;2022-10-30T00:57:58;19.27;;;2.63;;
73571;SDS011;61854;48.510;-2.770;2022-10-30T01:00:27;22.23;;;3.22;;
73571;SDS011;61854;48.510;-2.770;2022-10-30T01:02:57;20.23;;;3.25;;
73571;SDS011;61854;48.510;-2.770;2022-10-30T01:05:23;22.38;;;2.58;;
73571;SDS011;61854;48.510;-2.770;2022-10-30T01:10:17;17.33;;;2.22;;
73571;SDS011;61854;48.510;-2.770;2022-10-30T01:12:43;19.00;;;3.00;;
73571;SDS011;61854;48.510;-2.770;2022-10-30T01:15:11;19.73;;;2.97;;
73571;SDS011;61854;48.510;-2.770;2022-10-30T01:17:48;16.35;;;2.33;;
73571;SDS011;61854;48.510;-2.770;2022-10-30T01:20:36;14.73;;;2.75;;
73571;SDS011;61854;48.510;-2.770;2022-10-30T01:29:31;17.65;;;2.63;;
73571;SDS011;61854;48.510;-2.770;2022-10-30T01:32:07;16.50;;;2.60;;
73571;SDS011;61854;48.510;-2.770;2022-10-30T01:37:18;14.30;;;1.77;;
73571;SDS011;61854;48.510;-2.770;2022-10-30T01:39:52;19.27;;;2.97;;
73571;SDS011;61854;48.510;-2.770;2022-10-30T01:45:18;17.08;;;2.30;;
73571;SDS011;61854;48.510;-2.770;2022-10-30T01:48:08;15.48;;;2.42;;
73571;SDS011;61854;48.510;-2.770;2022-10-30T01:53:35;21.23;;;2.70;;
73571;SDS011;61854;48.510;-2.770;2022-10-30T01:59:19;16.55;;;2.22;;
73571;SDS011;61854;48.510;-2.770;2022-10-30T02:02:02;14.88;;;2.28;;
73571;SDS011;61854;48.510;-2.770;2022-10-30T02:04:28;20.15;;;2.92;;
73571;SDS011;61854;48.510;-2.770;2022-10-30T02:06:54;13.25;;;1.92;;
73571;SDS011;61854;48.510;-2.770;2022-10-30T02:09:20;16.85;;;2.33;;
73571;SDS011;61854;48.510;-2.770;2022-10-30T02:11:46;18.50;;;3.38;;
73571;SDS011;61854;48.510;-2.770;2022-10-30T02:14:15;21.90;;;2.25;;
73571;SDS011;61854;48.510;-2.770;2022-10-30T02:16:48;17.10;;;2.22;;
73571;SDS011;61854;48.510;-2.770;2022-10-30T02:19:16;18.25;;;2.47;;
73571;SDS011;61854;48.510;-2.770;2022-10-30T02:21:43;16.92;;;2.80;;
73571;SDS011;61854;48.510;-2.770;2022-10-30T02:24:08;18.42;;;2.50;;
73571;SDS011;61854;48.510;-2.770;2022-10-30T02:26:34;21.20;;;2.72;;
73571;SDS011;61854;48.510;-2.770;2022-10-30T02:29:03;19.92;;;3.00;;
73571;SDS011;61854;48.510;-2.770;2022-10-30T02:31:28;16.30;;;2.55;;
73571;SDS011;61854;48.510;-2.770;2022-10-30T02:33:54;16.55;;;2.30;;
73571;SDS011;61854;48.510;-2.770;2022-10-30T02:36:19;18.27;;;2.88;;
73571;SDS011;61854;48.510;-2.770;2022-10-30T02:38:45;16.48;;;2.25;;
73571;SDS011;61854;48.510;-2.770;2022-10-30T02:41:11;20.00;;;2.15;;
73571;SDS011;61854;48.510;-2.770;2022-10-30T02:43:36;16.85;;;2.35;;
73571;SDS011;61854;48.510;-2.770;2022-10-30T02:46:02;12.07;;;2.05;;
73571;SDS011;61854;48.510;-2.770;2022-10-30T02:48:29;20.88;;;2.63;;
73571;SDS011;61854;48.510;-2.770;2022-10-30T02:51:01;17.98;;;2.58;;
73571;SDS011;61854;48.510;-2.770;2022-10-30T02:53:28;16.15;;;2.28;;
73571;SDS011;61854;48.510;-2.770;2022-10-30T02:55:54;19.20;;;2.30;;
73571;SDS011;61854;48.510;-2.770;2022-10-30T02:58:20;17.90;;;2.05;;
73571;SDS011;61854;48.510;-2.770;2022-10-30T03:00:46;18.90;;;2.47;;
73571;SDS011;61854;48.510;-2.770;2022-10-30T03:03:15;19.40;;;1.73;;
73571;SDS011;61854;48.510;-2.770;2022-10-30T03:05:40;14.65;;;2.28;;
73571;SDS011;61854;48.510;-2.770;2022-10-30T03:08:06;17.35;;;2.17;;
73571;SDS011;61854;48.510;-2.770;2022-10-30T03:10:32;10.90;;;1.70;;
73571;SDS011;61854;48.510;-2.770;2022-10-30T03:12:57;19.27;;;2.00;;
73571;SDS011;61854;48.510;-2.770;2022-10-30T03:15:23;15.82;;;2.40;;
73571;SDS011;61854;48.510;-2.770;2022-10-30T03:17:48;17.30;;;2.42;;
73571;SDS011;61854;48.510;-2.770;2022-10-30T03:20:17;19.45;;;2.03;;
73571;SDS011;61854;48.510;-2.770;2022-10-30T03:22:43;18.25;;;2.28;;
73571;SDS011;61854;48.510;-2.770;2022-10-30T03:25:09;14.35;;;1.80;;
73571;SDS011;61854;48.510;-2.770;2022-10-30T03:27:35;14.07;;;2.13;;
73571;SDS011;61854;48.510;-2.770;2022-10-30T03:30:00;15.25;;;2.40;;
73571;SDS011;61854;48.510;-2.770;2022-10-30T03:32:26;14.05;;;2.08;;
73571;SDS011;61854;48.510;-2.770;2022-10-30T03:34:51;14.63;;;1.88;;
73571;SDS011;61854;48.510;-2.770;2022-10-30T03:37:17;16.58;;;2.17;;
73571;SDS011;61854;48.510;-2.770;2022-10-30T03:39:43;10.43;;;1.40;;
73571;SDS011;61854;48.510;-2.770;2022-10-30T03:42:08;12.85;;;2.15;;
73571;SDS011;61854;48.510;-2.770;2022-10-30T03:44:34;12.82;;;1.80;;
73571;SDS011;61854;48.510;-2.770;2022-10-30T03:46:59;12.65;;;1.67;;
73571;SDS011;61854;48.510;-2.770;2022-10-30T03:49:28;11.75;;;1.75;;
73571;SDS011;61854;48.510;-2.770;2022-10-30T03:51:53;17.50;;;2.13;;
73571;SDS011;61854;48.510;-2.770;2022-10-30T03:54:19;9.90;;;1.73;;
73571;SDS011;61854;48.510;-2.770;2022-10-30T03:56:44;13.43;;;2.33;;
73571;SDS011;61854;48.510;-2.770;2022-10-30T03:59:13;10.30;;;1.80;;
73571;SDS011;61854;48.510;-2.770;2022-10-30T04:01:38;11.35;;;1.88;;
73571;SDS011;61854;48.510;-2.770;2022-10-30T04:04:04;9.93;;;1.65;;
73571;SDS011;61854;48.510;-2.770;2022-10-30T04:06:29;9.60;;;1.50;;
73571;SDS011;61854;48.510;-2.770;2022-10-30T04:08:55;13.65;;;2.10;;
73571;SDS011;61854;48.510;-2.770;2022-10-30T04:11:23;13.60;;;2.03;;
73571;SDS011;61854;48.510;-2.770;2022-10-30T04:13:51;13.38;;;1.40;;
73571;SDS011;61854;48.510;-2.770;2022-10-30T04:16:17;11.35;;;1.58;;
73571;SDS011;61854;48.510;-2.770;2022-10-30T04:18:42;12.05;;;1.60;;
73571;SDS011;61854;48.510;-2.770;2022-10-30T04:21:08;12.00;;;1.55;;
73571;SDS011;61854;48.510;-2.770;2022-10-30T04:23:34;9.48;;;1.73;;
73571;SDS011;61854;48.510;-2.770;2022-10-30T04:25:59;11.77;;;1.77;;
73571;SDS011;61854;48.510;-2.770;2022-10-30T04:28:26;14.77;;;1.83;;
73571;SDS011;61854;48.510;-2.770;2022-10-30T04:30:51;10.23;;;1.98;;
73571;SDS011;61854;48.510;-2.770;2022-10-30T04:33:17;10.57;;;1.27;;
73571;SDS011;61854;48.510;-2.770;2022-10-30T04:35:43;12.27;;;1.48;;
73571;SDS011;61854;48.510;-2.770;2022-10-30T04:38:12;15.13;;;1.70;;
73571;SDS011;61854;48.510;-2.770;2022-10-30T04:40:39;11.60;;;1.95;;
73571;SDS011;61854;48.510;-2.770;2022-10-30T04:43:10;15.20;;;1.55;;
73571;SDS011;61854;48.510;-2.770;2022-10-30T04:45:39;13.88;;;1.58;;
73571;SDS011;61854;48.510;-2.770;2022-10-30T04:48:06;9.32;;;1.38;;
73571;SDS011;61854;48.510;-2.770;2022-10-30T04:50:37;10.82;;;1.52;;
73571;SDS011;61854;48.510;-2.770;2022-10-30T04:53:04;14.60;;;1.77;;
73571;SDS011;61854;48.510;-2.770;2022-10-30T04:55:31;9.77;;;1.65;;
73571;SDS011;61854;48.510;-2.770;2022-10-30T04:57:58;9.80;;;1.48;;
73571;SDS011;61854;48.510;-2.770;2022-10-30T05:00:25;11.07;;;1.60;;
73571;SDS011;61854;48.510;-2.770;2022-10-30T05:02:51;12.55;;;2.05;;
73571;SDS011;61854;48.510;-2.770;2022-10-30T05:05:16;12.23;;;1.40;;
73571;SDS011;61854;48.510;-2.770;2022-10-30T05:07:42;10.27;;;1.60;;
73571;SDS011;61854;48.510;-2.770;2022-10-30T05:10:11;11.35;;;1.63;;
73571;SDS011;61854;48.510;-2.770;2022-10-30T05:12:42;10.77;;;1.45;;
73571;SDS011;61854;48.510;-2.770;2022-10-30T05:15:09;13.93;;;1.70;;
73571;SDS011;61854;48.510;-2.770;2022-10-30T05:17:36;11.77;;;1.50;;
73571;SDS011;61854;48.510;-2.770;2022-10-30T05:20:02;10.30;;;1.70;;
73571;SDS011;61854;48.510;-2.770;2022-10-30T05:22:28;11.80;;;2.03;;
73571;SDS011;61854;48.510;-2.770;2022-10-30T05:24:54;10.88;;;1.15;;
73571;SDS011;61854;48.510;-2.770;2022-10-30T05:27:20;11.57;;;1.50;;
73571;SDS011;61854;48.510;-2.770;2022-10-30T05:29:45;11.25;;;1.92;;
73571;SDS011;61854;48.510;-2.770;2022-10-30T05:32:11;8.77;;;1.35;;
73571;SDS011;61854;48.510;-2.770;2022-10-30T05:34:36;8.63;;;1.38;;
73571;SDS011;61854;48.510;-2.770;2022-10-30T05:37:05;9.82;;;2.08;;
73571;SDS011;61854;48.510;-2.770;2022-10-30T05:39:31;10.75;;;1.80;;
73571;SDS011;61854;48.510;-2.770;2022-10-30T05:41:56;9.35;;;1.45;;
73571;SDS011;61854;48.510;-2.770;2022-10-30T05:44:22;12.25;;;1.45;;
73571;SDS011;61854;48.510;-2.770;2022-10-30T05:46:47;11.35;;;1.60;;
73571;SDS011;61854;48.510;-2.770;2022-10-30T05:49:13;10.75;;;1.58;;
73571;SDS011;61854;48.510;-2.770;2022-10-30T05:51:38;8.75;;;1.73;;
73571;SDS011;61854;48.510;-2.770;2022-10-30T05:54:04;10.77;;;1.63;;
73571;SDS011;61854;48.510;-2.770;2022-10-30T05:56:30;10.60;;;2.03;;
73571;SDS011;61854;48.510;-2.770;2022-10-30T05:58:55;10.20;;;1.55;;
73571;SDS011;61854;48.510;-2.770;2022-10-30T06:01:21;10.43;;;1.50;;
73571;SDS011;61854;48.510;-2.770;2022-10-30T06:03:47;7.82;;;1.40;;
73571;SDS011;61854;48.510;-2.770;2022-10-30T06:06:12;5.25;;;1.00;;
73571;SDS011;61854;48.510;-2.770;2022-10-30T06:08:38;10.63;;;1.40;;
73571;SDS011;61854;48.510;-2.770;2022-10-30T06:11:03;11.70;;;1.55;;
73571;SDS011;61854;48.510;-2.770;2022-10-30T06:13:29;10.15;;;1.30;;
73571;SDS011;61854;48.510;-2.770;2022-10-30T06:15:55;8.65;;;1.60;;
73571;SDS011;61854;48.510;-2.770;2022-10-30T06:18:21;11.63;;;1.67;;
73571;SDS011;61854;48.510;-2.770;2022-10-30T06:20:50;12.20;;;1.52;;
73571;SDS011;61854;48.510;-2.770;2022-10-30T06:23:15;13.45;;;1.85;;
73571;SDS011;61854;48.510;-2.770;2022-10-30T06:25:41;8.20;;;1.38;;
73571;SDS011;61854;48.510;-2.770;2022-10-30T06:28:08;9.88;;;1.60;;
73571;SDS011;61854;48.510;-2.770;2022-10-30T06:30:34;7.85;;;1.40;;
73571;SDS011;61854;48.510;-2.770;2022-10-30T06:33:00;15.98;;;1.73;;
73571;SDS011;61854;48.510;-2.770;2022-10-30T06:35:28;11.50;;;1.95;;
73571;SDS011;61854;48.510;-2.770;2022-10-30T06:37:54;11.85;;;1.80;;
73571;SDS011;61854;48.510;-2.770;2022-10-30T06:40:26;7.85;;;1.60;;
73571;SDS011;61854;48.510;-2.770;2022-10-30T06:42:54;9.65;;;1.55;;
73571;SDS011;61854;48.510;-2.770;2022-10-30T06:45:20;10.93;;;1.70;;
73571;SDS011;61854;48.510;-2.770;2022-10-30T06:47:47;9.07;;;1.75;;
73571;SDS011;61854;48.510;-2.770;2022-10-30T06:50:14;15.80;;;1.80;;
73571;SDS011;61854;48.510;-2.770;2022-10-30T06:52:41;8.30;;;1.33;;
73571;SDS011;61854;48.510;-2.770;2022-10-30T06:55:07;11.13;;;1.73;;
73571;SDS011;61854;48.510;-2.770;2022-10-30T06:57:34;10.35;;;1.88;;
73571;SDS011;61854;48.510;-2.770;2022-10-30T07:00:00;11.38;;;1.50;;
73571;SDS011;61854;48.510;-2.770;2022-10-30T07:02:26;9.55;;;1.70;;
73571;SDS011;61854;48.510;-2.770;2022-10-30T07:04:51;9.50;;;1.75;;
73571;SDS011;61854;48.510;-2.770;2022-10-30T07:07:17;8.75;;;1.38;;
73571;SDS011;61854;48.510;-2.770;2022-10-30T07:09:43;7.85;;;1.40;;
73571;SDS011;61854;48.510;-2.770;2022-10-30T07:14:36;9.38;;;1.25;;
73571;SDS011;61854;48.510;-2.770;2022-10-30T07:17:05;8.63;;;1.48;;
73571;SDS011;61854;48.510;-2.770;2022-10-30T07:19:31;9.82;;;1.75;;
73571;SDS011;61854;48.510;-2.770;2022-10-30T07:21:56;10.32;;;1.73;;
73571;SDS011;61854;48.510;-2.770;2022-10-30T07:24:25;10.20;;;1.80;;
73571;SDS011;61854;48.510;-2.770;2022-10-30T07:26:51;13.23;;;1.65;;
73571;SDS011;61854;48.510;-2.770;2022-10-30T07:29:16;8.32;;;1.80;;
73571;SDS011;61854;48.510;-2.770;2022-10-30T07:31:44;7.20;;;1.25;;
73571;SDS011;61854;48.510;-2.770;2022-10-30T07:34:11;13.32;;;1.85;;
73571;SDS011;61854;48.510;-2.770;2022-10-30T07:36:36;9.10;;;1.40;;
73571;SDS011;61854;48.510;-2.770;2022-10-30T07:39:05;7.72;;;1.70;;
73571;SDS011;61854;48.510;-2.770;2022-10-30T07:41:30;10.88;;;1.52;;
73571;SDS011;61854;48.510;-2.770;2022-10-30T07:43:56;9.23;;;1.25;;
73571;SDS011;61854;48.510;-2.770;2022-10-30T07:46:22;8.27;;;1.50;;
73571;SDS011;61854;48.510;-2.770;2022-10-30T07:48:47;7.70;;;1.42;;
73571;SDS011;61854;48.510;-2.770;2022-10-30T07:51:13;8.88;;;1.70;;
73571;SDS011;61854;48.510;-2.770;2022-10-30T07:53:39;8.70;;;1.50;;
73571;SDS011;61854;48.510;-2.770;2022-10-30T07:56:05;7.85;;;1.00;;
73571;SDS011;61854;48.510;-2.770;2022-10-30T08:00:59;8.43;;;1.50;;
73571;SDS011;61854;48.510;-2.770;2022-10-30T08:03:27;7.43;;;1.50;;
73571;SDS011;61854;48.510;-2.770;2022-10-30T08:05:53;17.30;;;1.55;;
73571;SDS011;61854;48.510;-2.770;2022-10-30T08:08:18;8.23;;;1.30;;
73571;SDS011;61854;48.510;-2.770;2022-10-30T08:10:44;5.95;;;1.25;;
73571;SDS011;61854;48.510;-2.770;2022-10-30T08:13:09;11.10;;;1.35;;
73571;SDS011;61854;48.510;-2.770;2022-10-30T08:15:35;6.82;;;1.35;;
73571;SDS011;61854;48.510;-2.770;2022-10-30T08:18:03;7.22;;;1.48;;
73571;SDS011;61854;48.510;-2.770;2022-10-30T08:20:29;11.65;;;1.95;;
73571;SDS011;61854;48.510;-2.770;2022-10-30T08:22:55;9.77;;;1.77;;
73571;SDS011;61854;48.510;-2.770;2022-10-30T08:25:22;11.05;;;1.30;;
73571;SDS011;61854;48.510;-2.770;2022-10-30T08:30:22;9.00;;;1.70;;
73571;SDS011;61854;48.510;-2.770;2022-10-30T08:32:49;9.75;;;1.60;;
73571;SDS011;61854;48.510;-2.770;2022-10-30T08:35:18;8.57;;;1.35;;
73571;SDS011;61854;48.510;-2.770;2022-10-30T08:37:43;8.20;;;1.38;;
73571;SDS011;61854;48.510;-2.770;2022-10-30T08:40:09;8.43;;;1.52;;
73571;SDS011;61854;48.510;-2.770;2022-10-30T08:42:35;10.00;;;1.63;;
73571;SDS011;61854;48.510;-2.770;2022-10-30T08:45:01;8.13;;;1.20;;
73571;SDS011;61854;48.510;-2.770;2022-10-30T08:47:26;8.00;;;1.42;;
73571;SDS011;61854;48.510;-2.770;2022-10-30T08:49:52;11.60;;;1.92;;
73571;SDS011;61854;48.510;-2.770;2022-10-30T08:52:20;12.40;;;1.63;;
73571;SDS011;61854;48.510;-2.770;2022-10-30T08:54:46;10.50;;;1.42;;
73571;SDS011;61854;48.510;-2.770;2022-10-30T08:57:11;12.73;;;1.45;;
73571;SDS011;61854;48.510;-2.770;2022-10-30T08:59:37;10.40;;;1.67;;
73571;SDS011;61854;48.510;-2.770;2022-10-30T09:02:03;9.45;;;1.60;;
73571;SDS011;61854;48.510;-2.770;2022-10-30T09:04:32;9.35;;;1.70;;
73571;SDS011;61854;48.510;-2.770;2022-10-30T09:06:59;8.90;;;1.27;;
73571;SDS011;61854;48.510;-2.770;2022-10-30T09:09:28;13.82;;;1.83;;
73571;SDS011;61854;48.510;-2.770;2022-10-30T09:14:19;10.23;;;1.40;;
73571;SDS011;61854;48.510;-2.770;2022-10-30T09:16:45;12.65;;;1.65;;
73571;SDS011;61854;48.510;-2.770;2022-10-30T09:19:10;13.30;;;1.90;;
73571;SDS011;61854;48.510;-2.770;2022-10-30T09:21:36;10.15;;;1.95;;
73571;SDS011;61854;48.510;-2.770;2022-10-30T09:24:01;6.75;;;1.50;;
73571;SDS011;61854;48.510;-2.770;2022-10-30T09:26:27;10.20;;;1.65;;
73571;SDS011;61854;48.510;-2.770;2022-10-30T09:28:53;8.30;;;1.35;;
73571;SDS011;61854;48.510;-2.770;2022-10-30T09:31:19;6.30;;;1.45;;
73571;SDS011;61854;48.510;-2.770;2022-10-30T09:33:48;11.10;;;1.80;;
73571;SDS011;61854;48.510;-2.770;2022-10-30T09:36:16;6.88;;;1.30;;
73571;SDS011;61854;48.510;-2.770;2022-10-30T09:38:42;14.38;;;1.30;;
73571;SDS011;61854;48.510;-2.770;2022-10-30T09:46:57;10.77;;;2.13;;
73571;SDS011;61854;48.510;-2.770;2022-10-30T09:49:43;14.68;;;2.60;;
73571;SDS011;61854;48.510;-2.770;2022-10-30T09:52:19;11.35;;;1.92;;
73571;SDS011;61854;48.510;-2.770;2022-10-30T10:00:55;13.00;;;1.70;;
73571;SDS011;61854;48.510;-2.770;2022-10-30T10:03:37;10.35;;;1.80;;
73571;SDS011;61854;48.510;-2.770;2022-10-30T10:06:25;10.32;;;1.30;;
73571;SDS011;61854;48.510;-2.770;2022-10-30T10:08:55;14.10;;;1.58;;
73571;SDS011;61854;48.510;-2.770;2022-10-30T10:11:37;10.80;;;1.50;;
73571;SDS011;61854;48.510;-2.770;2022-10-30T10:16:47;12.97;;;1.80;;
73571;SDS011;61854;48.510;-2.770;2022-10-30T10:19:20;10.88;;;1.67;;
73571;SDS011;61854;48.510;-2.770;2022-10-30T10:24:21;11.00;;;1.70;;
73571;SDS011;61854;48.510;-2.770;2022-10-30T10:29:40;10.70;;;1.88;;
73571;SDS011;61854;48.510;-2.770;2022-10-30T10:37:44;11.18;;;1.75;;
73571;SDS011;61854;48.510;-2.770;2022-10-30T10:40:21;10.77;;;1.77;;
73571;SDS011;61854;48.510;-2.770;2022-10-30T10:43:17;9.60;;;1.70;;
73571;SDS011;61854;48.510;-2.770;2022-10-30T10:51:41;11.02;;;1.55;;
73571;SDS011;61854;48.510;-2.770;2022-10-30T10:54:10;13.75;;;1.80;;
73571;SDS011;61854;48.510;-2.770;2022-10-30T10:56:46;9.07;;;1.75;;
73571;SDS011;61854;48.510;-2.770;2022-10-30T11:01:39;10.73;;;1.90;;
73571;SDS011;61854;48.510;-2.770;2022-10-30T11:06:56;17.70;;;2.33;;
73571;SDS011;61854;48.510;-2.770;2022-10-30T11:09:23;10.60;;;2.05;;
73571;SDS011;61854;48.510;-2.770;2022-10-30T11:11:51;10.65;;;1.75;;
73571;SDS011;61854;48.510;-2.770;2022-10-30T11:14:20;10.48;;;2.22;;
73571;SDS011;61854;48.510;-2.770;2022-10-30T11:19:45;12.07;;;1.77;;
73571;SDS011;61854;48.510;-2.770;2022-10-30T11:27:46;12.18;;;1.90;;
73571;SDS011;61854;48.510;-2.770;2022-10-30T11:30:21;11.68;;;1.60;;
73571;SDS011;61854;48.510;-2.770;2022-10-30T11:32:49;10.70;;;1.70;;
73571;SDS011;61854;48.510;-2.770;2022-10-30T11:35:16;12.85;;;1.85;;
73571;SDS011;61854;48.510;-2.770;2022-10-30T11:37:44;12.38;;;1.95;;
73571;SDS011;61854;48.510;-2.770;2022-10-30T11:42:38;13.52;;;1.75;;
73571;SDS011;61854;48.510;-2.770;2022-10-30T11:45:15;15.80;;;2.10;;
73571;SDS011;61854;48.510;-2.770;2022-10-30T11:50:20;12.65;;;1.77;;
73571;SDS011;61854;48.510;-2.770;2022-10-30T11:52:48;13.60;;;2.08;;
73571;SDS011;61854;48.510;-2.770;2022-10-30T11:55:27;11.05;;;2.13;;
73571;SDS011;61854;48.510;-2.770;2022-10-30T11:58:00;12.70;;;1.88;;
73571;SDS011;61854;48.510;-2.770;2022-10-30T12:00:27;12.07;;;2.28;;
73571;SDS011;61854;48.510;-2.770;2022-10-30T12:02:57;11.80;;;2.05;;
73571;SDS011;61854;48.510;-2.770;2022-10-30T12:10:31;9.18;;;1.50;;
73571;SDS011;61854;48.510;-2.770;2022-10-30T12:13:20;8.65;;;1.42;;
73571;SDS011;61854;48.510;-2.770;2022-10-30T12:16:12;12.80;;;1.48;;
73571;SDS011;61854;48.510;-2.770;2022-10-30T12:19:16;8.32;;;1.55;;
73571;SDS011;61854;48.510;-2.770;2022-10-30T12:21:40;11.10;;;1.88;;
73571;SDS011;61854;48.510;-2.770;2022-10-30T12:24:15;7.50;;;1.40;;
73571;SDS011;61854;48.510;-2.770;2022-10-30T12:26:45;8.10;;;1.52;;
73571;SDS011;61854;48.510;-2.770;2022-10-30T12:29:14;13.80;;;1.60;;
73571;SDS011;61854;48.510;-2.770;2022-10-30T12:31:56;11.90;;;1.88;;
73571;SDS011;61854;48.510;-2.770;2022-10-30T12:34:28;10.15;;;1.88;;
73571;SDS011;61854;48.510;-2.770;2022-10-30T12:37:09;8.95;;;1.98;;
73571;SDS011;61854;48.510;-2.770;2022-10-30T12:39:43;12.77;;;1.92;;
73571;SDS011;61854;48.510;-2.770;2022-10-30T12:42:19;11.02;;;1.63;;
73571;SDS011;61854;48.510;-2.770;2022-10-30T12:44:53;8.13;;;1.50;;
73571;SDS011;61854;48.510;-2.770;2022-10-30T12:50:09;10.85;;;1.90;;
73571;SDS011;61854;48.510;-2.770;2022-10-30T12:53:01;8.48;;;1.52;;
73571;SDS011;61854;48.510;-2.770;2022-10-30T12:55:47;9.60;;;1.45;;
73571;SDS011;61854;48.510;-2.770;2022-10-30T12:58:36;8.60;;;1.38;;
73571;SDS011;61854;48.510;-2.770;2022-10-30T13:01:23;6.25;;;1.42;;
73571;SDS011;61854;48.510;-2.770;2022-10-30T13:04:08;14.55;;;1.73;;
73571;SDS011;61854;48.510;-2.770;2022-10-30T13:09:22;9.15;;;1.50;;
73571;SDS011;61854;48.510;-2.770;2022-10-30T13:12:02;10.93;;;1.50;;
73571;SDS011;61854;48.510;-2.770;2022-10-30T13:14:54;6.75;;;1.42;;
73571;SDS011;61854;48.510;-2.770;2022-10-30T13:17:30;10.88;;;2.05;;
73571;SDS011;61854;48.510;-2.770;2022-10-30T13:19:56;7.25;;;1.38;;
73571;SDS011;61854;48.510;-2.770;2022-10-30T13:22:43;8.50;;;1.40;;
73571;SDS011;61854;48.510;-2.770;2022-10-30T13:31:41;7.97;;;1.65;;
73571;SDS011;61854;48.510;-2.770;2022-10-30T13:39:41;10.70;;;1.60;;
73571;SDS011;61854;48.510;-2.770;2022-10-30T13:45:04;12.07;;;1.80;;
73571;SDS011;61854;48.510;-2.770;2022-10-30T13:52:54;7.97;;;1.60;;
73571;SDS011;61854;48.510;-2.770;2022-10-30T13:55:27;7.10;;;1.38;;
73571;SDS011;61854;48.510;-2.770;2022-10-30T14:00:42;9.52;;;1.85;;
73571;SDS011;61854;48.510;-2.770;2022-10-30T14:06:21;8.73;;;2.05;;
73571;SDS011;61854;48.510;-2.770;2022-10-30T14:09:21;16.55;;;1.95;;
73571;SDS011;61854;48.510;-2.770;2022-10-30T14:11:54;13.10;;;1.95;;
73571;SDS011;61854;48.510;-2.770;2022-10-30T14:17:11;10.75;;;1.98;;
73571;SDS011;61854;48.510;-2.770;2022-10-30T14:22:29;10.52;;;1.88;;
73571;SDS011;61854;48.510;-2.770;2022-10-30T14:24:55;9.75;;;2.22;;
73571;SDS011;61854;48.510;-2.770;2022-10-30T14:27:32;7.95;;;1.90;;
73571;SDS011;61854;48.510;-2.770;2022-10-30T14:29:58;7.55;;;1.58;;
73571;SDS011;61854;48.510;-2.770;2022-10-30T14:39:47;10.63;;;1.60;;
73571;SDS011;61854;48.510;-2.770;2022-10-30T14:56:05;12.38;;;1.77;;
73571;SDS011;61854;48.510;-2.770;2022-10-30T14:58:43;8.25;;;1.52;;
73571;SDS011;61854;48.510;-2.770;2022-10-30T15:07:54;10.90;;;2.08;;
73571;SDS011;61854;48.510;-2.770;2022-10-30T15:15:05;8.70;;;1.67;;
73571;SDS011;61854;48.510;-2.770;2022-10-30T15:17:37;11.30;;;2.15;;
73571;SDS011;61854;48.510;-2.770;2022-10-30T15:20:13;12.88;;;1.92;;
73571;SDS011;61854;48.510;-2.770;2022-10-30T15:23:30;10.38;;;1.90;;
73571;SDS011;61854;48.510;-2.770;2022-10-30T15:25:47;10.82;;;2.10;;
73571;SDS011;61854;48.510;-2.770;2022-10-30T15:28:25;13.38;;;1.80;;
73571;SDS011;61854;48.510;-2.770;2022-10-30T15:31:05;9.32;;;1.85;;
73571;SDS011;61854;48.510;-2.770;2022-10-30T15:33:44;12.05;;;1.90;;
73571;SDS011;61854;48.510;-2.770;2022-10-30T15:36:17;14.82;;;2.28;;
73571;SDS011;61854;48.510;-2.770;2022-10-30T15:41:43;13.65;;;1.88;;
73571;SDS011;61854;48.510;-2.770;2022-10-30T15:44:29;9.98;;;1.50;;
73571;SDS011;61854;48.510;-2.770;2022-10-30T15:47:00;9.30;;;1.67;;
73571;SDS011;61854;48.510;-2.770;2022-10-30T15:51:53;9.45;;;1.77;;
73571;SDS011;61854;48.510;-2.770;2022-10-30T15:54:19;12.02;;;1.92;;
73571;SDS011;61854;48.510;-2.770;2022-10-30T15:56:49;10.35;;;1.90;;
73571;SDS011;61854;48.510;-2.770;2022-10-30T15:59:23;13.00;;;2.20;;
73571;SDS011;61854;48.510;-2.770;2022-10-30T16:01:52;11.40;;;2.00;;
73571;SDS011;61854;48.510;-2.770;2022-10-30T16:06:52;15.57;;;2.03;;
73571;SDS011;61854;48.510;-2.770;2022-10-30T16:09:47;14.73;;;2.20;;
73571;SDS011;61854;48.510;-2.770;2022-10-30T16:12:26;13.13;;;2.23;;
73571;SDS011;61854;48.510;-2.770;2022-10-30T16:14:54;10.25;;;1.80;;
73571;SDS011;61854;48.510;-2.770;2022-10-30T16:17:24;10.93;;;1.73;;
73571;SDS011;61854;48.510;-2.770;2022-10-30T16:19:51;12.52;;;2.00;;
73571;SDS011;61854;48.510;-2.770;2022-10-30T16:22:23;16.58;;;2.10;;
73571;SDS011;61854;48.510;-2.770;2022-10-30T16:24:52;12.50;;;2.03;;
73571;SDS011;61854;48.510;-2.770;2022-10-30T16:27:20;13.60;;;2.00;;
73571;SDS011;61854;48.510;-2.770;2022-10-30T16:29:51;11.20;;;2.00;;
73571;SDS011;61854;48.510;-2.770;2022-10-30T16:32:27;12.95;;;1.90;;
73571;SDS011;61854;48.510;-2.770;2022-10-30T16:34:58;11.73;;;1.90;;
73571;SDS011;61854;48.510;-2.770;2022-10-30T16:37:29;13.52;;;2.00;;
73571;SDS011;61854;48.510;-2.770;2022-10-30T16:39:56;12.07;;;1.88;;
73571;SDS011;61854;48.510;-2.770;2022-10-30T16:42:27;15.00;;;2.15;;
73571;SDS011;61854;48.510;-2.770;2022-10-30T16:45:18;9.85;;;1.77;;
73571;SDS011;61854;48.510;-2.770;2022-10-30T16:48:05;16.20;;;2.28;;
73571;SDS011;61854;48.510;-2.770;2022-10-30T16:50:33;14.95;;;2.08;;
73571;SDS011;61854;48.510;-2.770;2022-10-30T16:55:44;15.05;;;2.15;;
73571;SDS011;61854;48.510;-2.770;2022-10-30T16:58:11;18.48;;;2.53;;
73571;SDS011;61854;48.510;-2.770;2022-10-30T17:00:39;21.70;;;2.90;;
73571;SDS011;61854;48.510;-2.770;2022-10-30T17:03:11;16.10;;;2.30;;
73571;SDS011;61854;48.510;-2.770;2022-10-30T17:05:37;15.27;;;2.30;;
73571;SDS011;61854;48.510;-2.770;2022-10-30T17:08:28;10.68;;;2.25;;
73571;SDS011;61854;48.510;-2.770;2022-10-30T17:11:01;11.82;;;1.80;;
73571;SDS011;61854;48.510;-2.770;2022-10-30T17:18:48;12.80;;;2.58;;
73571;SDS011;61854;48.510;-2.770;2022-10-30T17:21:18;11.93;;;2.25;;
73571;SDS011;61854;48.510;-2.770;2022-10-30T17:23:54;16.98;;;2.70;;
73571;SDS011;61854;48.510;-2.770;2022-10-30T17:26:22;12.40;;;2.45;;
73571;SDS011;61854;48.510;-2.770;2022-10-30T17:28:48;15.30;;;2.40;;
73571;SDS011;61854;48.510;-2.770;2022-10-30T17:33:42;11.02;;;1.65;;
73571;SDS011;61854;48.510;-2.770;2022-10-30T17:36:09;13.43;;;1.98;;